createdAt,value
2023-03-26T00:00:24.806Z,83.64
2023-03-26T00:02:54.961Z,83.67
2023-03-26T00:05:26.646Z,83.82
2023-03-26T00:07:56.887Z,83.67
2023-03-26T00:10:28.752Z,83.69
2023-03-26T00:12:59.949Z,83.58
2023-03-26T00:15:31.854Z,83.46
2023-03-26T00:18:03.118Z,83.46
2023-03-26T00:20:37.425Z,83.43
2023-03-26T00:23:10.678Z,83.39
2023-03-26T00:25:44.825Z,83.25
2023-03-26T00:28:15.756Z,83.30
2023-03-26T00:30:46.868Z,83.33
2023-03-26T00:33:20.593Z,83.33
2023-03-26T00:36:03.875Z,83.28
2023-03-26T00:38:40.127Z,83.21
2023-03-26T00:41:19.804Z,82.73
2023-03-26T00:43:51.742Z,82.80
2023-03-26T00:46:22.126Z,83.15
2023-03-26T00:48:52.777Z,83.21
2023-03-26T00:51:24.636Z,83.47
2023-03-26T00:53:55.327Z,83.56
2023-03-26T00:56:26.812Z,83.78
2023-03-26T00:58:57.879Z,83.75
2023-03-26T01:01:31.349Z,83.79
2023-03-26T01:04:29.520Z,83.87
2023-03-26T01:07:06.048Z,83.87
2023-03-26T01:09:44.184Z,83.86
2023-03-26T01:12:18.547Z,83.80
2023-03-26T01:14:52.073Z,83.81
2023-03-26T01:17:24.628Z,84.03
2023-03-26T01:20:28.668Z,83.98
2023-03-26T01:23:06.674Z,84.02
2023-03-26T01:25:45.839Z,84.12
2023-03-26T01:28:18.935Z,84.17
2023-03-26T01:31:14.632Z,84.21
2023-03-26T01:33:56.860Z,84.16
2023-03-26T01:36:52.402Z,84.27
2023-03-26T01:39:27.592Z,84.28
2023-03-26T01:42:05.312Z,84.41
2023-03-26T01:44:49.240Z,84.40
2023-03-26T01:47:21.052Z,84.37
2023-03-26T01:49:51.307Z,84.07
2023-03-26T01:52:27.594Z,84.25
2023-03-26T01:54:59.024Z,84.07
2023-03-26T01:57:59.192Z,83.84
2023-03-26T02:00:43.497Z,83.55
2023-03-26T02:03:27.473Z,83.43
2023-03-26T02:06:12.724Z,83.46
2023-03-26T02:08:49.392Z,83.34
2023-03-26T02:11:20.104Z,83.33
2023-03-26T02:13:52.218Z,83.37
2023-03-26T02:16:23.001Z,83.39
2023-03-26T02:18:57.064Z,83.38
2023-03-26T02:21:29.369Z,83.26
2023-03-26T02:24:04.429Z,83.21
2023-03-26T02:26:39.114Z,83.21
2023-03-26T02:29:16.989Z,83.23
2023-03-26T02:31:53.423Z,83.24
2023-03-26T02:34:24.530Z,83.11
2023-03-26T02:36:59.170Z,83.22
2023-03-26T02:39:30.365Z,83.35
2023-03-26T02:42:07.150Z,83.18
2023-03-26T02:44:44.412Z,83.04
2023-03-26T02:47:23.594Z,82.54
2023-03-26T02:49:57.335Z,82.24
2023-03-26T02:52:39.077Z,81.66
2023-03-26T02:55:09.416Z,81.29
2023-03-26T02:57:41.180Z,81.10
2023-03-26T03:00:19.249Z,81.02
2023-03-26T03:03:06.435Z,80.62
2023-03-26T03:05:58.963Z,80.25
2023-03-26T03:08:37.818Z,80.56
2023-03-26T03:11:26.156Z,80.15
2023-03-26T03:13:57.626Z,80.10
2023-03-26T03:16:31.105Z,80.06
2023-03-26T03:19:08.177Z,80.22
2023-03-26T03:21:45.304Z,80.18
2023-03-26T03:24:22.881Z,80.39
2023-03-26T03:27:20.578Z,80.80
2023-03-26T03:30:06.643Z,80.94
2023-03-26T03:32:49.070Z,81.02
2023-03-26T03:35:23.700Z,81.20
2023-03-26T03:38:02.290Z,81.10
2023-03-26T03:40:39.365Z,80.94
2023-03-26T03:43:10.197Z,81.12
2023-03-26T03:45:48.856Z,81.12
2023-03-26T03:48:32.764Z,81.35
2023-03-26T03:51:02.827Z,81.53
2023-03-26T03:53:49.469Z,81.59
2023-03-26T03:56:30.740Z,81.63
2023-03-26T03:59:20.019Z,81.46
2023-03-26T04:01:52.832Z,81.58
2023-03-26T04:04:34.303Z,81.52
2023-03-26T04:07:10.078Z,81.52
2023-03-26T04:10:09.470Z,81.33
2023-03-26T04:13:20.642Z,80.90
2023-03-26T04:16:12.170Z,80.99
2023-03-26T04:18:42.592Z,81.00
2023-03-26T04:21:18.066Z,81.14
2023-03-26T04:23:49.715Z,79.80
2023-03-26T04:26:40.848Z,78.14
2023-03-26T04:29:19.691Z,74.28
2023-03-26T04:31:51.773Z,73.33
2023-03-26T04:34:27.927Z,73.11
2023-03-26T04:37:05.285Z,73.19
2023-03-26T04:39:42.419Z,72.56
2023-03-26T04:42:42.937Z,72.06
2023-03-26T04:45:34.611Z,72.32
2023-03-26T04:48:04.911Z,72.31
2023-03-26T04:50:35.546Z,72.36
2023-03-26T04:53:06.236Z,72.19
2023-03-26T04:56:28.379Z,72.51
2023-03-26T04:59:37.075Z,72.13
2023-03-26T05:02:15.779Z,72.15
2023-03-26T05:04:59.444Z,71.86
2023-03-26T05:07:32.948Z,71.74
2023-03-26T05:10:07.582Z,71.66
2023-03-26T05:12:46.414Z,71.57
2023-03-26T05:15:30.262Z,71.10
2023-03-26T05:18:00.689Z,70.62
2023-03-26T05:20:41.334Z,70.81
2023-03-26T05:23:14.237Z,71.31
2023-03-26T05:25:53.441Z,71.11
2023-03-26T05:28:28.750Z,70.85
2023-03-26T05:31:04.059Z,70.81
2023-03-26T05:33:39.413Z,70.86
2023-03-26T05:36:18.023Z,70.02
2023-03-26T05:39:00.308Z,69.99
2023-03-26T05:41:50.298Z,69.94
2023-03-26T05:44:21.162Z,70.03
2023-03-26T05:46:51.608Z,70.48
2023-03-26T05:49:26.697Z,70.69
2023-03-26T05:51:57.510Z,70.31
2023-03-26T05:54:37.336Z,70.47
2023-03-26T05:57:30.402Z,70.75
2023-03-26T06:00:21.208Z,70.71
2023-03-26T06:02:57.370Z,71.17
2023-03-26T06:05:46.715Z,71.36
2023-03-26T06:08:24.916Z,71.30
2023-03-26T06:11:04.548Z,71.40
2023-03-26T06:13:39.064Z,70.86
2023-03-26T06:16:26.135Z,71.31
2023-03-26T06:19:14.126Z,71.13
2023-03-26T06:22:10.206Z,71.54
2023-03-26T06:25:00.310Z,71.25
2023-03-26T06:27:55.254Z,71.01
2023-03-26T06:30:46.199Z,70.87
2023-03-26T06:33:39.172Z,71.04
2023-03-26T06:36:10.080Z,70.48
2023-03-26T06:38:41.296Z,70.37
2023-03-26T06:41:13.287Z,70.29
2023-03-26T06:44:03.899Z,70.15
2023-03-26T06:47:00.369Z,70.24
2023-03-26T06:49:49.398Z,70.05
2023-03-26T06:52:40.278Z,70.18
2023-03-26T06:55:28.642Z,69.91
2023-03-26T06:58:30.552Z,70.23
2023-03-26T07:01:19.207Z,69.88
2023-03-26T07:04:07.512Z,70.15
2023-03-26T07:06:56.338Z,70.46
2023-03-26T07:09:45.104Z,70.79
2023-03-26T07:12:34.315Z,71.07
2023-03-26T07:15:34.507Z,71.06
2023-03-26T07:18:23.739Z,71.46
2023-03-26T07:20:55.695Z,71.92
2023-03-26T07:23:27.366Z,71.78
2023-03-26T07:26:38.956Z,72.18
2023-03-26T07:29:51.297Z,72.48
2023-03-26T07:32:44.742Z,72.41
2023-03-26T07:36:04.281Z,72.56
2023-03-26T07:39:23.124Z,72.51
2023-03-26T07:42:26.154Z,73.06
2023-03-26T07:45:35.251Z,74.97
2023-03-26T07:48:20.521Z,75.27
2023-03-26T07:51:11.889Z,74.55
2023-03-26T07:53:55.842Z,74.83
2023-03-26T07:57:07.793Z,72.89
2023-03-26T08:00:27.329Z,72.17
2023-03-26T08:03:21.434Z,71.20
2023-03-26T08:06:34.165Z,70.20
2023-03-26T08:09:39.241Z,69.89
2023-03-26T08:12:52.983Z,69.50
2023-03-26T08:15:33.928Z,68.84
2023-03-26T08:18:23.204Z,66.88
2023-03-26T08:21:16.054Z,66.78
2023-03-26T08:24:13.954Z,66.93
2023-03-26T08:27:05.245Z,66.90
2023-03-26T08:30:01.099Z,66.77
2023-03-26T08:32:32.554Z,67.11
2023-03-26T08:35:05.383Z,67.00
2023-03-26T08:37:35.472Z,67.33
2023-03-26T08:40:06.522Z,67.42
2023-03-26T08:42:52.689Z,68.31
2023-03-26T08:46:14.490Z,68.97
2023-03-26T08:49:23.886Z,69.32
2023-03-26T08:52:10.255Z,67.97
2023-03-26T08:55:17.967Z,67.16
2023-03-26T08:58:15.416Z,66.99
2023-03-26T09:01:15.996Z,66.61
2023-03-26T09:03:50.157Z,67.36
2023-03-26T09:06:39.338Z,67.45
2023-03-26T09:09:31.301Z,67.40
2023-03-26T09:12:20.255Z,67.53
2023-03-26T09:15:31.641Z,68.47
2023-03-26T09:18:09.620Z,69.43
2023-03-26T09:21:11.030Z,70.03
2023-03-26T09:24:20.456Z,70.66
2023-03-26T09:27:08.453Z,70.55
2023-03-26T09:29:56.996Z,70.55
2023-03-26T09:32:42.171Z,70.47
2023-03-26T09:35:49.792Z,70.29
2023-03-26T09:38:32.352Z,69.99
2023-03-26T09:41:12.591Z,69.91
2023-03-26T09:44:05.190Z,69.94
2023-03-26T09:47:08.401Z,70.05
2023-03-26T09:49:39.364Z,69.31
2023-03-26T09:52:36.623Z,68.97
2023-03-26T09:55:43.447Z,68.94
2023-03-26T09:58:32.146Z,67.02
2023-03-26T10:01:20.542Z,66.67
2023-03-26T10:04:18.826Z,66.41
2023-03-26T10:07:07.281Z,66.14
2023-03-26T10:10:21.406Z,66.29
2023-03-26T10:13:17.508Z,66.15
2023-03-26T10:16:27.666Z,65.45
2023-03-26T10:19:12.697Z,65.06
2023-03-26T10:22:01.794Z,64.29
2023-03-26T10:24:41.488Z,64.02
2023-03-26T10:27:26.744Z,63.82
2023-03-26T10:30:31.552Z,63.80
2023-03-26T10:33:15.809Z,63.52
2023-03-26T10:36:27.138Z,64.03
2023-03-26T10:39:37.999Z,63.17
2023-03-26T10:42:24.202Z,62.81
2023-03-26T10:45:22.502Z,63.21
2023-03-26T10:48:14.589Z,50.93
2023-03-26T10:50:58.835Z,47.40
2023-03-26T10:54:00.339Z,46.12
2023-03-26T10:56:48.901Z,44.98
2023-03-26T10:59:20.988Z,44.38
2023-03-26T11:02:19.031Z,46.24
2023-03-26T11:05:27.955Z,48.98
2023-03-26T11:08:08.251Z,49.05
2023-03-26T11:11:29.828Z,51.92
2023-03-26T11:14:27.953Z,49.60
2023-03-26T11:17:40.107Z,52.31
2023-03-26T11:20:17.056Z,50.69
2023-03-26T11:23:12.481Z,52.38
2023-03-26T11:25:53.565Z,54.40
2023-03-26T11:28:36.547Z,53.84
2023-03-26T11:31:19.912Z,52.97
2023-03-26T11:33:56.066Z,52.79
2023-03-26T11:36:32.648Z,52.76
2023-03-26T11:39:12.802Z,50.18
2023-03-26T11:41:45.316Z,50.90
2023-03-26T11:44:37.576Z,51.73
2023-03-26T11:47:17.927Z,51.86
2023-03-26T11:49:53.158Z,50.41
2023-03-26T11:52:24.444Z,51.38
2023-03-26T11:54:56.808Z,50.54
2023-03-26T11:57:37.819Z,51.69
2023-03-26T12:00:19.529Z,52.27
2023-03-26T12:02:54.935Z,51.78
2023-03-26T12:05:28.847Z,53.65
2023-03-26T12:08:05.195Z,52.99
2023-03-26T12:10:41.589Z,52.83
2023-03-26T12:13:32.799Z,52.38
2023-03-26T12:16:17.892Z,51.82
2023-03-26T12:19:10.603Z,51.69
2023-03-26T12:21:53.488Z,51.16
2023-03-26T12:24:38.089Z,52.06
2023-03-26T12:27:29.808Z,51.69
2023-03-26T12:30:27.593Z,50.48
2023-03-26T12:33:05.717Z,51.39
2023-03-26T12:35:39.285Z,50.22
2023-03-26T12:38:32.446Z,50.69
2023-03-26T12:42:25.860Z,50.19
2023-03-26T12:44:54.711Z,50.98
2023-03-26T12:47:57.495Z,50.47
2023-03-26T12:50:17.684Z,49.66
2023-03-26T12:53:23.722Z,48.31
2023-03-26T12:56:18.928Z,49.71
2023-03-26T12:59:16.017Z,49.28
2023-03-26T13:02:18.187Z,50.26
2023-03-26T13:05:06.091Z,48.98
2023-03-26T13:07:54.577Z,49.94
2023-03-26T13:10:35.396Z,48.74
2023-03-26T13:13:12.088Z,50.15
2023-03-26T13:16:25.496Z,50.02
2023-03-26T13:19:04.244Z,48.59
2023-03-26T13:21:45.193Z,49.29
2023-03-26T13:24:35.446Z,47.50
2023-03-26T13:27:39.835Z,49.17
2023-03-26T13:30:27.736Z,48.45
2023-03-26T13:33:03.727Z,47.84
2023-03-26T13:36:19.094Z,48.74
2023-03-26T13:39:12.612Z,46.47
2023-03-26T13:42:26.791Z,46.91
2023-03-26T13:45:28.938Z,47.92
2023-03-26T13:48:02.801Z,47.32
2023-03-26T13:50:39.001Z,48.50
2023-03-26T13:53:55.745Z,48.47
2023-03-26T13:56:35.910Z,47.08
2023-03-26T13:59:16.377Z,47.75
2023-03-26T14:01:55.024Z,46.66
2023-03-26T14:04:33.977Z,48.25
2023-03-26T14:07:49.667Z,46.42
2023-03-26T14:10:28.778Z,47.22
2023-03-26T14:13:01.731Z,47.66
2023-03-26T14:15:52.204Z,47.50
2023-03-26T14:18:46.811Z,48.96
2023-03-26T14:21:37.144Z,49.51
2023-03-26T14:24:45.918Z,51.29
2023-03-26T14:27:35.526Z,48.47
2023-03-26T14:30:36.584Z,50.84
2023-03-26T14:33:17.150Z,50.87
2023-03-26T14:36:30.735Z,51.45
2023-03-26T14:39:36.353Z,50.68
2023-03-26T14:42:09.633Z,51.25
2023-03-26T14:45:06.044Z,53.21
2023-03-26T14:47:46.493Z,51.96
2023-03-26T14:50:48.137Z,51.66
2023-03-26T14:53:25.903Z,52.22
2023-03-26T14:56:24.570Z,53.39
2023-03-26T14:59:24.894Z,53.06
2023-03-26T15:02:31.999Z,54.11
2023-03-26T15:05:26.169Z,54.47
2023-03-26T15:08:02.720Z,54.10
2023-03-26T15:10:42.626Z,54.86
2023-03-26T15:13:27.908Z,56.19
2023-03-26T15:16:28.264Z,56.09
2023-03-26T15:19:36.532Z,56.77
2023-03-26T15:22:32.848Z,57.07
2023-03-26T15:25:40.242Z,57.24
2023-03-26T15:28:46.920Z,57.89
2023-03-26T15:31:38.870Z,56.19
2023-03-26T15:34:40.634Z,57.16
2023-03-26T15:37:48.709Z,56.92
2023-03-26T15:40:26.921Z,56.92
2023-03-26T15:43:14.871Z,55.68
2023-03-26T15:46:08.911Z,57.49
2023-03-26T15:49:06.850Z,55.92
2023-03-26T15:51:53.461Z,54.67
2023-03-26T15:54:29.433Z,55.34
2023-03-26T15:57:10.091Z,55.02
2023-03-26T16:00:18.555Z,56.46
2023-03-26T16:03:12.624Z,55.52
2023-03-26T16:06:05.095Z,54.64
2023-03-26T16:09:00.065Z,55.55
2023-03-26T16:11:47.189Z,55.60
2023-03-26T16:14:27.157Z,56.69
2023-03-26T16:17:00.596Z,56.28
2023-03-26T16:19:51.512Z,56.21
2023-03-26T16:22:58.320Z,56.01
2023-03-26T16:25:36.007Z,55.58
2023-03-26T16:32:30.162Z,54.77
2023-03-26T16:35:03.469Z,54.44
2023-03-26T16:37:38.133Z,54.21
2023-03-26T16:40:25.016Z,55.44
2023-03-26T16:43:28.030Z,55.26
2023-03-26T16:46:45.671Z,55.44
2023-03-26T16:49:26.147Z,55.54
2023-03-26T16:52:02.378Z,54.53
2023-03-26T16:55:00.270Z,55.57
2023-03-26T16:57:48.146Z,54.72
2023-03-26T17:00:41.121Z,56.66
2023-03-26T17:03:31.383Z,56.96
2023-03-26T17:06:28.772Z,56.90
2023-03-26T17:09:05.688Z,57.27
2023-03-26T17:11:49.770Z,57.67
2023-03-26T17:14:41.196Z,58.74
2023-03-26T17:17:34.447Z,59.46
2023-03-26T17:20:47.100Z,60.04
2023-03-26T17:23:46.842Z,60.61
2023-03-26T17:26:25.827Z,59.90
2023-03-26T17:29:15.684Z,63.31
2023-03-26T17:32:02.385Z,63.49
2023-03-26T17:34:50.571Z,62.44
2023-03-26T17:37:25.123Z,61.53
2023-03-26T17:39:55.309Z,60.55
2023-03-26T17:42:39.646Z,58.32
2023-03-26T17:45:16.893Z,56.72
2023-03-26T17:48:00.125Z,56.18
2023-03-26T17:50:58.901Z,55.89
2023-03-26T17:53:35.962Z,56.50
2023-03-26T17:56:16.000Z,55.48
2023-03-26T17:58:50.931Z,56.37
2023-03-26T18:01:30.003Z,56.39
2023-03-26T18:04:05.149Z,56.07
2023-03-26T18:06:48.271Z,55.01
2023-03-26T18:09:38.818Z,53.94
2023-03-26T18:12:43.688Z,55.02
2023-03-26T18:15:28.204Z,53.68
2023-03-26T18:18:13.294Z,54.26
2023-03-26T18:20:48.333Z,52.30
2023-03-26T18:23:25.384Z,53.63
2023-03-26T18:26:13.997Z,52.24
2023-03-26T18:28:55.818Z,52.12
2023-03-26T18:31:28.971Z,52.02
2023-03-26T18:34:05.195Z,52.22
2023-03-26T18:36:37.204Z,53.42
2023-03-26T18:39:15.921Z,53.75
2023-03-26T18:41:47.294Z,54.77
2023-03-26T18:44:20.891Z,54.31
2023-03-26T18:46:55.206Z,54.28
2023-03-26T18:49:28.422Z,53.14
2023-03-26T18:51:58.775Z,54.55
2023-03-26T18:54:36.012Z,54.88
2023-03-26T18:57:15.537Z,55.30
2023-03-26T18:59:47.233Z,55.45
2023-03-26T19:02:19.354Z,55.71
2023-03-26T19:04:51.685Z,55.89
2023-03-26T19:07:27.933Z,56.05
2023-03-26T19:09:59.416Z,56.38
2023-03-26T19:12:35.415Z,56.74
2023-03-26T19:15:15.838Z,57.89
2023-03-26T19:17:58.519Z,58.34
2023-03-26T19:20:32.413Z,61.79
2023-03-26T19:23:03.559Z,65.44
2023-03-26T19:25:50.077Z,65.73
2023-03-26T19:28:45.441Z,66.21
2023-03-26T19:31:25.465Z,67.34
2023-03-26T19:34:06.198Z,65.99
2023-03-26T19:36:39.631Z,67.51
2023-03-26T19:39:21.616Z,66.79
2023-03-26T19:41:57.804Z,66.63
2023-03-26T19:44:32.371Z,67.17
2023-03-26T19:47:11.374Z,67.60
2023-03-26T19:50:05.324Z,67.24
2023-03-26T19:52:39.889Z,67.76
2023-03-26T19:55:28.694Z,67.05
2023-03-26T19:57:59.255Z,67.61
2023-03-26T20:00:29.526Z,67.33
2023-03-26T20:03:00.657Z,67.43
2023-03-26T20:05:37.826Z,66.52
2023-03-26T20:08:19.193Z,65.65
2023-03-26T20:10:49.604Z,65.80
2023-03-26T20:13:20.914Z,65.99
2023-03-26T20:16:06.402Z,65.62
2023-03-26T20:18:37.925Z,68.50
2023-03-26T20:21:14.289Z,71.17
2023-03-26T20:23:46.592Z,72.24
2023-03-26T20:26:19.948Z,72.64
2023-03-26T20:28:53.555Z,72.86
2023-03-26T20:31:29.586Z,74.42
2023-03-26T20:34:00.826Z,74.53
2023-03-26T20:36:34.373Z,74.72
2023-03-26T20:39:10.112Z,75.66
2023-03-26T20:41:49.405Z,75.26
2023-03-26T20:44:22.479Z,74.92
2023-03-26T20:46:53.848Z,74.23
2023-03-26T20:49:30.901Z,74.63
2023-03-26T20:52:03.893Z,75.82
